Time;durP1;ratioP1;P1;durP2;ratioP2;P2;SDS_P1;SDS_P2;PMS_P1;PMS_P2;Temp;Humidity;BMP_temperature;BMP_pressure;BME280_temperature;BME280_humidity;BME280_pressure;Samples;Min_cycle;Max_cycle;Signal;HPM_P1;HPM_P2
2022/04/14 00:00:09;;;;;;;20.77;12.87;;;15.40;1.00;;;;;;4952773;28;20261;-62
2022/04/14 00:02:37;;;;;;;19.13;13.13;;;15.40;1.00;;;;;;4948453;28;20225;-62
2022/04/14 00:05:05;;;;;;;17.10;13.60;;;15.30;1.00;;;;;;4950868;28;20230;-62
2022/04/14 00:07:36;;;;;;;17.57;12.63;;;15.40;1.00;;;;;;4945775;28;20574;-62
2022/04/14 00:10:04;;;;;;;12.77;11.37;;;15.40;1.00;;;;;;4951636;28;20198;-63
2022/04/14 00:12:31;;;;;;;18.37;12.67;;;15.30;1.00;;;;;;4962109;28;21046;-62
2022/04/14 00:15:00;;;;;;;20.57;13.47;;;15.10;7.10;;;;;;4963242;28;20254;-61
2022/04/14 00:17:29;;;;;;;16.60;11.13;;;15.00;99.90;;;;;;4944394;28;20218;-62
2022/04/14 00:19:55;;;;;;;18.37;14.07;;;15.10;99.90;;;;;;4947575;28;20202;-62
2022/04/14 00:22:22;;;;;;;18.90;14.13;;;15.10;99.90;;;;;;4965115;28;20202;-63
2022/04/14 00:24:49;;;;;;;20.43;14.97;;;15.00;99.90;;;;;;4966050;28;20730;-62
2022/04/14 00:27:20;;;;;;;19.00;13.77;;;15.00;99.90;;;;;;4949926;28;20281;-63
2022/04/14 00:29:48;;;;;;;19.67;13.13;;;15.10;99.90;;;;;;4967022;28;20530;-62
2022/04/14 00:32:15;;;;;;;21.83;14.33;;;15.10;99.90;;;;;;4964388;28;20583;-62
2022/04/14 00:34:43;;;;;;;20.17;13.90;;;15.10;99.90;;;;;;4965905;28;20202;-61
2022/04/14 00:37:10;;;;;;;18.80;13.17;;;15.00;99.90;;;;;;4964997;28;20293;-61
2022/04/14 00:39:39;;;;;;;16.77;12.93;;;15.00;99.90;;;;;;4967565;28;20274;-62
2022/04/14 00:42:10;;;;;;;16.20;12.53;;;14.90;99.90;;;;;;4967511;28;20681;-62
2022/04/14 00:44:40;;;;;;;18.87;13.80;;;14.80;1.00;;;;;;4966749;28;21018;-62
2022/04/14 00:47:08;;;;;;;15.53;12.77;;;14.80;1.00;;;;;;4953162;28;20209;-62
2022/04/14 00:49:35;;;;;;;17.63;12.70;;;14.70;1.00;;;;;;4965784;28;20261;-62
2022/04/14 00:52:03;;;;;;;18.77;12.90;;;14.70;1.00;;;;;;4950577;28;20217;-61
2022/04/14 00:54:31;;;;;;;16.87;12.60;;;14.80;1.00;;;;;;4966300;28;20199;-62
2022/04/14 00:56:59;;;;;;;18.20;12.60;;;14.80;1.00;;;;;;4964131;28;20234;-63
2022/04/14 00:59:26;;;;;;;18.07;11.60;;;14.70;1.00;;;;;;4947743;28;20206;-62
2022/04/14 01:01:57;;;;;;;16.63;12.80;;;14.60;1.00;;;;;;4964522;28;20278;-61
2022/04/14 01:04:27;;;;;;;18.67;12.20;;;14.60;1.00;;;;;;4960536;28;20191;-62
2022/04/14 01:06:55;;;;;;;22.50;16.87;;;14.60;1.00;;;;;;4962237;28;20281;-62
2022/04/14 01:09:26;;;;;;;22.50;16.33;;;14.50;1.00;;;;;;4964827;28;20198;-62
2022/04/14 01:11:55;;;;;;;17.83;13.40;;;14.60;99.90;;;;;;4965040;28;20207;-61
2022/04/14 01:14:24;;;;;;;15.83;12.43;;;14.50;99.90;;;;;;4964906;28;20198;-61
2022/04/14 01:16:52;;;;;;;18.47;12.27;;;14.40;99.90;;;;;;4963842;28;20191;-62
2022/04/14 01:19:22;;;;;;;16.30;12.17;;;14.40;1.00;;;;;;4948690;28;20654;-62
2022/04/14 01:21:52;;;;;;;15.93;11.90;;;14.30;99.90;;;;;;4964900;28;20218;-62
2022/04/14 01:24:19;;;;;;;15.40;11.97;;;14.40;1.00;;;;;;4964913;28;20211;-62
2022/04/14 01:26:46;;;;;;;15.20;12.00;;;14.40;1.00;;;;;;4966240;28;20222;-62
2022/04/14 01:29:24;;;;;;;18.60;12.10;;;14.30;1.00;;;;;;4963838;28;20213;-62
2022/04/14 01:31:52;;;;;;;16.97;12.40;;;14.30;1.00;;;;;;4963427;28;20262;-61
2022/04/14 01:34:20;;;;;;;15.63;11.23;;;14.30;1.00;;;;;;4964975;28;20666;-62
2022/04/14 01:36:47;;;;;;;17.77;12.83;;;14.30;1.00;;;;;;4965388;28;20685;-62
2022/04/14 01:39:14;;;;;;;14.67;11.57;;;14.30;1.00;;;;;;4964304;28;20241;-62
2022/04/14 01:41:43;;;;;;;17.63;11.27;;;14.40;1.00;;;;;;4963714;28;20201;-62
2022/04/14 01:44:11;;;;;;;13.40;11.67;;;14.30;99.90;;;;;;4937011;28;20198;-62
2022/04/14 01:46:39;;;;;;;13.53;11.40;;;14.30;99.90;;;;;;4964750;28;20197;-62
2022/04/14 01:49:08;;;;;;;13.87;10.77;;;14.30;1.00;;;;;;4948613;28;20605;-63
2022/04/14 01:51:36;;;;;;;13.87;11.27;;;14.40;1.00;;;;;;4966069;28;20285;-64
2022/04/14 01:54:05;;;;;;;15.77;12.40;;;14.30;99.90;;;;;;4954393;28;20237;-63
2022/04/14 01:56:32;;;;;;;16.17;12.13;;;14.30;1.00;;;;;;4963159;28;20628;-61
2022/04/14 01:59:00;;;;;;;14.80;11.80;;;14.20;1.00;;;;;;4947320;28;20226;-62
2022/04/14 02:01:28;;;;;;;14.00;10.63;;;14.20;1.00;;;;;;4947727;28;20199;-62
2022/04/14 02:03:57;;;;;;;14.80;11.60;;;14.20;1.00;;;;;;4961790;28;20263;-62
2022/04/14 02:06:24;;;;;;;13.27;11.23;;;14.20;99.90;;;;;;4953351;28;20300;-63
2022/04/14 02:08:51;;;;;;;15.90;12.37;;;14.20;99.90;;;;;;4963600;28;20255;-62
2022/04/14 02:11:18;;;;;;;15.53;11.50;;;14.20;99.90;;;;;;4946532;28;20250;-62
2022/04/14 02:13:45;;;;;;;14.43;10.63;;;14.20;99.90;;;;;;4965808;28;20202;-62
2022/04/14 02:16:12;;;;;;;13.27;11.10;;;14.20;99.90;;;;;;4946458;28;20239;-63
2022/04/14 02:18:39;;;;;;;16.07;12.27;;;14.20;99.90;;;;;;4963562;28;20271;-62
2022/04/14 02:21:06;;;;;;;16.37;12.30;;;14.10;99.90;;;;;;4948089;28;20274;-62
2022/04/14 02:23:33;;;;;;;15.40;11.53;;;14.00;99.90;;;;;;4962556;28;20562;-62
2022/04/14 02:26:03;;;;;;;15.80;12.10;;;13.90;99.90;;;;;;4963242;28;20199;-63
2022/04/14 02:28:30;;;;;;;20.70;13.80;;;13.90;99.90;;;;;;4947111;28;20226;-63
2022/04/14 02:30:57;;;;;;;20.43;14.37;;;13.70;1.00;;;;;;4951030;28;20608;-64
2022/04/14 02:33:24;;;;;;;21.23;15.37;;;13.10;1.00;;;;;;4945443;28;20675;-63
2022/04/14 02:35:51;;;;;;;23.90;16.17;;;12.90;1.00;;;;;;4945957;28;20230;-64
2022/04/14 02:38:18;;;;;;;23.77;17.13;;;12.90;1.00;;;;;;4943614;28;20271;-63
2022/04/14 02:40:45;;;;;;;23.63;17.37;;;12.60;99.90;;;;;;4946875;28;20733;-63
2022/04/14 02:43:12;;;;;;;26.27;17.83;;;12.50;99.90;;;;;;4964663;28;20195;-63
2022/04/14 02:45:39;;;;;;;27.33;19.60;;;12.50;1.00;;;;;;4944000;28;20634;-65
2022/04/14 02:48:07;;;;;;;30.40;19.43;;;12.40;1.00;;;;;;4952345;28;20210;-63
2022/04/14 02:50:34;;;;;;;32.97;21.20;;;12.50;99.90;;;;;;4945419;28;20203;-63
2022/04/14 02:53:01;;;;;;;30.93;20.77;;;12.70;99.90;;;;;;4964549;28;20210;-64
2022/04/14 02:55:28;;;;;;;30.17;20.67;;;12.70;1.00;;;;;;4950906;28;20298;-63
2022/04/14 02:57:55;;;;;;;31.40;21.23;;;12.60;1.00;;;;;;4944978;28;20333;-64
2022/04/14 03:00:22;;;;;;;31.33;22.17;;;12.60;1.00;;;;;;4946564;28;20675;-62
2022/04/14 03:02:49;;;;;;;33.90;22.40;;;12.60;60.80;;;;;;4961124;28;20273;-63
2022/04/14 03:05:16;;;;;;;38.00;24.40;;;12.70;1.00;;;;;;4955893;28;22542;-63
2022/04/14 03:07:43;;;;;;;31.10;22.67;;;12.70;99.90;;;;;;4942513;28;20193;-63
2022/04/14 03:10:10;;;;;;;28.93;21.30;;;12.80;99.90;;;;;;4961479;28;20651;-63
2022/04/14 03:12:43;;;;;;;28.20;20.63;;;13.00;1.00;;;;;;4942174;28;20199;-64
2022/04/14 03:15:11;;;;;;;29.83;21.40;;;13.20;99.90;;;;;;4937255;28;20289;-63
2022/04/14 03:17:38;;;;;;;26.10;20.03;;;13.30;1.00;;;;;;4958913;28;20277;-64
2022/04/14 03:20:05;;;;;;;25.23;17.53;;;13.30;99.90;;;;;;4958943;28;20754;-63
2022/04/14 03:22:33;;;;;;;24.20;18.00;;;13.30;99.90;;;;;;4962147;28;20218;-65
2022/04/14 03:25:04;;;;;;;23.77;18.40;;;13.30;99.90;;;;;;4943582;28;20234;-63
2022/04/14 03:27:31;;;;;;;26.77;18.10;;;13.30;99.90;;;;;;4944332;28;20235;-62
2022/04/14 03:29:58;;;;;;;23.53;17.53;;;12.90;1.00;;;;;;4960971;28;20197;-62
2022/04/14 03:32:26;;;;;;;23.57;18.33;;;13.00;1.00;;;;;;4961134;28;20209;-63
2022/04/14 03:34:53;;;;;;;24.97;18.37;;;13.00;1.00;;;;;;4960057;28;20290;-62
2022/04/14 03:37:22;;;;;;;26.07;18.77;;;12.80;1.00;;;;;;4960981;28;20198;-62
2022/04/14 03:39:49;;;;;;;27.90;19.63;;;12.70;99.90;;;;;;4944362;28;20219;-63
2022/04/14 03:42:15;;;;;;;28.03;19.37;;;12.50;1.00;;;;;;4944931;28;20265;-63
2022/04/14 03:44:43;;;;;;;28.20;18.67;;;12.50;99.90;;;;;;4948652;28;20206;-62
2022/04/14 03:47:10;;;;;;;28.10;20.03;;;12.50;99.90;;;;;;4946870;28;20232;-62
2022/04/14 03:49:40;;;;;;;29.43;20.67;;;12.50;99.90;;;;;;4939981;28;20206;-62
2022/04/14 03:52:07;;;;;;;27.53;19.73;;;12.70;99.90;;;;;;4955875;28;20205;-62
2022/04/14 03:54:34;;;;;;;31.93;20.80;;;12.80;19.40;;;;;;4954882;28;20205;-62
2022/04/14 03:57:01;;;;;;;33.07;21.83;;;12.70;99.90;;;;;;4940986;28;20254;-63
2022/04/14 03:59:28;;;;;;;29.53;21.20;;;12.60;99.90;;;;;;4955603;28;20206;-62
2022/04/14 04:01:55;;;;;;;35.23;22.10;;;12.50;1.00;;;;;;4956449;28;20247;-64
2022/04/14 04:04:22;;;;;;;33.50;22.40;;;12.40;59.50;;;;;;4939949;28;20203;-63
2022/04/14 04:06:52;;;;;;;32.47;21.50;;;12.60;99.90;;;;;;4962541;28;20224;-63
2022/04/14 04:09:19;;;;;;;29.27;20.93;;;12.70;94.00;;;;;;4945722;28;20309;-63
2022/04/14 04:11:46;;;;;;;32.77;21.67;;;12.70;1.00;;;;;;4960120;28;20340;-63
2022/04/14 04:14:13;;;;;;;30.90;20.83;;;12.90;18.90;;;;;;4960181;28;20203;-62
2022/04/14 04:16:40;;;;;;;29.47;21.03;;;12.90;1.00;;;;;;4948691;28;20198;-62
2022/04/14 04:19:09;;;;;;;30.07;20.60;;;13.00;1.00;;;;;;4941956;28;20309;-62
2022/04/14 04:21:36;;;;;;;24.00;17.90;;;13.00;99.90;;;;;;4961532;28;20306;-63
2022/04/14 04:24:05;;;;;;;26.37;18.67;;;13.00;67.80;;;;;;4944080;28;20202;-62
2022/04/14 04:26:32;;;;;;;24.37;18.33;;;13.00;1.00;;;;;;4961567;28;20632;-63
2022/04/14 04:28:59;;;;;;;24.33;18.20;;;13.00;1.00;;;;;;4959744;28;20203;-64
2022/04/14 04:31:26;;;;;;;23.67;17.73;;;13.00;99.90;;;;;;4958153;28;20237;-63
2022/04/14 04:33:53;;;;;;;23.03;17.20;;;13.00;1.00;;;;;;4943658;28;20609;-62
2022/04/14 04:36:21;;;;;;;24.50;16.67;;;13.00;99.90;;;;;;4944142;28;20580;-63
2022/04/14 04:38:48;;;;;;;21.57;17.03;;;13.00;1.00;;;;;;4928443;28;20773;-62
2022/04/14 04:41:15;;;;;;;22.93;16.97;;;12.80;1.00;;;;;;4943145;28;20210;-63
2022/04/14 04:43:42;;;;;;;25.53;17.83;;;12.70;1.00;;;;;;4943096;28;20194;-63
2022/04/14 04:46:09;;;;;;;22.83;17.43;;;12.60;99.90;;;;;;4957452;28;20551;-63
2022/04/14 04:48:37;;;;;;;26.47;17.03;;;12.60;1.00;;;;;;4942660;28;20205;-63
2022/04/14 04:51:03;;;;;;;22.50;17.43;;;12.70;1.00;;;;;;4943900;28;20199;-63
2022/04/14 04:53:30;;;;;;;21.67;17.60;;;12.70;99.90;;;;;;4960921;28;20589;-63
2022/04/14 04:55:57;;;;;;;22.47;16.80;;;12.70;1.00;;;;;;4962067;28;20816;-63
2022/04/14 04:58:25;;;;;;;28.07;18.33;;;12.70;99.90;;;;;;4960023;28;20229;-62
2022/04/14 05:00:53;;;;;;;24.87;18.67;;;12.70;1.00;;;;;;4961261;28;20198;-62
2022/04/14 05:03:21;;;;;;;25.03;18.90;;;12.70;99.90;;;;;;4965835;28;20187;-63
2022/04/14 05:05:49;;;;;;;26.80;19.67;;;12.70;99.90;;;;;;4949722;28;20221;-62
2022/04/14 05:08:16;;;;;;;27.13;19.17;;;12.80;1.00;;;;;;4963645;28;20213;-63
2022/04/14 05:10:43;;;;;;;31.40;23.30;;;12.90;1.00;;;;;;4966508;28;20732;-63
2022/04/14 05:13:10;;;;;;;31.20;22.70;;;13.00;99.90;;;;;;4964934;28;20743;-62
2022/04/14 05:15:37;;;;;;;32.57;21.90;;;13.10;15.50;;;;;;4963132;28;20199;-62
2022/04/14 05:18:05;;;;;;;22.50;17.50;;;13.10;1.00;;;;;;4948180;28;20207;-63
2022/04/14 05:20:33;;;;;;;27.50;21.43;;;13.10;1.00;;;;;;4963468;28;20755;-63
2022/04/14 05:23:00;;;;;;;25.83;20.57;;;13.10;1.00;;;;;;4962595;28;20250;-62
2022/04/14 05:25:27;;;;;;;25.20;19.37;;;13.20;1.00;;;;;;4963345;28;20758;-62
2022/04/14 05:27:55;;;;;;;26.93;21.60;;;13.20;1.00;;;;;;4964033;28;20298;-62
2022/04/14 05:30:22;;;;;;;27.53;19.30;;;13.30;1.00;;;;;;4947069;28;20634;-63
2022/04/14 05:32:49;;;;;;;27.30;24.30;;;13.30;1.00;;;;;;4945723;28;20207;-62
2022/04/14 05:35:16;;;;;;;22.17;17.80;;;13.30;1.00;;;;;;4945640;28;20206;-62
2022/04/14 05:37:43;;;;;;;22.80;18.13;;;13.20;99.90;;;;;;4962394;28;20249;-62
2022/04/14 05:40:10;;;;;;;24.47;17.77;;;13.30;99.90;;;;;;4945958;28;20258;-61
2022/04/14 05:42:51;;;;;;;22.63;17.77;;;13.40;99.90;;;;;;4963420;28;20263;-62
2022/04/14 05:45:34;;;;;;;22.00;17.90;;;13.40;99.90;;;;;;4948722;28;20686;-62
2022/04/14 05:48:16;;;;;;;26.30;17.77;;;13.40;99.90;;;;;;4960401;28;20242;-63
2022/04/14 05:50:57;;;;;;;21.67;16.97;;;13.40;99.90;;;;;;4969195;28;20186;-63
2022/04/14 05:53:39;;;;;;;24.60;18.50;;;13.50;37.90;;;;;;4957723;28;20195;-62
2022/04/14 05:56:17;;;;;;;27.77;22.37;;;13.50;28.20;;;;;;4951266;28;20202;-62
2022/04/14 05:58:50;;;;;;;22.13;17.17;;;13.60;1.00;;;;;;4934259;28;20222;-62
2022/04/14 06:04:55;;;;;;;23.57;18.17;;;14.60;1.00;;;;;;4947538;28;20246;-63
2022/04/14 06:07:31;;;;;;;19.27;16.60;;;13.70;1.00;;;;;;4933974;28;20279;-62
2022/04/14 06:10:11;;;;;;;23.20;18.93;;;13.60;99.90;;;;;;4955355;28;20240;-62
2022/04/14 06:12:47;;;;;;;21.47;16.97;;;13.50;1.00;;;;;;4953576;28;20569;-63
2022/04/14 06:15:29;;;;;;;20.47;17.23;;;13.70;1.00;;;;;;4935049;28;20209;-62
2022/04/14 06:18:08;;;;;;;21.57;17.83;;;13.80;1.00;;;;;;4959681;28;20209;-62
2022/04/14 06:20:40;;;;;;;20.70;16.33;;;13.80;99.90;;;;;;4956914;28;20253;-62
2022/04/14 06:23:10;;;;;;;22.17;18.40;;;14.00;1.00;;;;;;4953367;28;20210;-62
2022/04/14 06:25:37;;;;;;;23.73;19.17;;;13.90;99.90;;;;;;4945145;28;20749;-62
2022/04/14 06:28:04;;;;;;;22.70;19.40;;;13.90;99.90;;;;;;4944914;28;20264;-62
2022/04/14 06:30:31;;;;;;;25.27;18.77;;;13.90;99.90;;;;;;4964559;28;20293;-62
2022/04/14 06:33:03;;;;;;;24.73;19.90;;;14.00;99.90;;;;;;4944905;28;20710;-62
2022/04/14 06:35:34;;;;;;;27.07;20.23;;;14.10;78.60;;;;;;4948643;28;20343;-61
2022/04/14 06:38:01;;;;;;;25.13;20.07;;;14.10;99.90;;;;;;4944977;28;20241;-62
2022/04/14 06:40:28;;;;;;;25.13;20.23;;;14.10;99.90;;;;;;4945905;28;20855;-64
2022/04/14 06:42:59;;;;;;;24.90;19.07;;;14.20;99.90;;;;;;4945507;28;20191;-63
2022/04/14 06:45:28;;;;;;;24.27;20.47;;;14.20;1.00;;;;;;4942284;28;20214;-61
2022/04/14 06:47:55;;;;;;;24.10;18.33;;;14.40;99.90;;;;;;4962833;28;20201;-63
2022/04/14 06:50:22;;;;;;;23.10;18.00;;;14.60;1.00;;;;;;4961415;28;20624;-63
2022/04/14 06:52:51;;;;;;;22.17;19.30;;;14.80;1.00;;;;;;4959896;28;20209;-62
2022/04/14 06:55:20;;;;;;;19.90;17.60;;;14.80;1.00;;;;;;4957235;28;20186;-62
2022/04/14 06:57:49;;;;;;;26.73;20.50;;;14.70;1.00;;;;;;4959924;28;20670;-61
2022/04/14 07:00:16;;;;;;;24.00;20.63;;;14.50;1.00;;;;;;4945019;28;20757;-61
2022/04/14 07:02:52;;;;;;;27.83;21.73;;;14.30;1.00;;;;;;4960729;28;20746;-63
2022/04/14 07:05:21;;;;;;;30.93;22.33;;;14.30;23.30;;;;;;4960908;28;20201;-63
2022/04/14 07:07:51;;;;;;;25.10;20.73;;;14.20;1.00;;;;;;4945259;28;20191;-61
2022/04/14 07:10:18;;;;;;;27.67;23.13;;;14.30;28.70;;;;;;4961367;28;20194;-63
2022/04/14 07:12:46;;;;;;;26.93;21.43;;;14.50;1.00;;;;;;4944417;28;20202;-62
2022/04/14 07:15:14;;;;;;;29.03;22.97;;;14.70;1.00;;;;;;4944299;28;20212;-62
2022/04/14 07:17:41;;;;;;;26.80;22.43;;;14.80;1.00;;;;;;4960500;28;20610;-62
2022/04/14 07:20:09;;;;;;;28.87;23.80;;;14.80;1.00;;;;;;4961448;28;20214;-63
2022/04/14 07:22:44;;;;;;;28.43;22.90;;;14.90;1.00;;;;;;4913456;28;20246;-62
2022/04/14 07:25:12;;;;;;;28.50;23.10;;;14.90;1.00;;;;;;4959321;28;20674;-61
2022/04/14 07:27:39;;;;;;;30.57;23.27;;;15.00;99.90;;;;;;4950083;28;20240;-60
2022/04/14 07:30:07;;;;;;;26.57;19.40;;;15.50;99.90;;;;;;4961161;28;20270;-61
2022/04/14 07:32:43;;;;;;;32.20;24.37;;;16.10;99.90;;;;;;4955551;28;20210;-60
2022/04/14 07:35:12;;;;;;;33.43;25.33;;;16.20;1.00;;;;;;4943345;28;20281;-61
2022/04/14 07:37:39;;;;;;;31.33;24.83;;;16.50;1.00;;;;;;4960637;28;20201;-61
2022/04/14 07:40:09;;;;;;;23.30;19.07;;;17.20;1.00;;;;;;4957847;28;20211;-61
2022/04/14 07:42:38;;;;;;;31.42;23.58;;;17.90;99.90;;;;;;4960569;28;20734;-61
2022/04/14 07:45:07;;;;;;;38.20;27.45;;;19.30;1.00;;;;;;4959698;28;20198;-62
2022/04/14 07:47:41;;;;;;;31.98;21.60;;;19.30;1.00;;;;;;4960661;28;20201;-62
2022/04/14 07:50:17;;;;;;;37.97;26.55;;;20.60;99.90;;;;;;4941316;28;20195;-62
2022/04/14 07:52:57;;;;;;;29.95;22.60;;;20.70;99.90;;;;;;4959986;28;20194;-62
2022/04/14 07:55:26;;;;;;;37.15;27.58;;;21.50;16.20;;;;;;4959812;28;20234;-62
2022/04/14 07:57:56;;;;;;;30.50;22.92;;;22.20;1.00;;;;;;4949109;28;21434;-61
2022/04/14 08:00:24;;;;;;;39.17;29.75;;;22.00;1.00;;;;;;4946282;28;20217;-61
2022/04/14 08:02:58;;;;;;;39.28;28.17;;;20.90;74.40;;;;;;4960535;28;20196;-61
2022/04/14 08:05:34;;;;;;;41.35;29.95;;;20.40;99.90;;;;;;4957944;28;20628;-61
2022/04/14 08:08:05;;;;;;;38.65;28.67;;;20.30;99.90;;;;;;4959780;28;20286;-61
2022/04/14 08:10:32;;;;;;;33.55;26.27;;;19.80;99.90;;;;;;4960832;28;20221;-61
2022/04/14 08:12:59;;;;;;;40.92;30.17;;;20.00;99.90;;;;;;4943152;28;20749;-62
2022/04/14 08:15:29;;;;;;;43.97;33.67;;;20.30;99.90;;;;;;4944417;28;20736;-62
2022/04/14 08:17:58;;;;;;;48.60;34.40;;;19.80;99.90;;;;;;4956850;28;20285;-62
2022/04/14 08:20:25;;;;;;;44.55;33.08;;;18.80;1.00;;;;;;4945001;28;20947;-62
2022/04/14 08:22:54;;;;;;;43.47;31.02;;;19.30;1.00;;;;;;4963310;28;20198;-62
2022/04/14 08:25:25;;;;;;;37.70;27.13;;;19.50;1.00;;;;;;4962913;28;20673;-62
2022/04/14 08:27:54;;;;;;;37.05;28.83;;;19.60;99.90;;;;;;4944652;28;20257;-62
2022/04/14 08:30:23;;;;;;;35.75;28.33;;;19.00;1.00;;;;;;4964346;28;20321;-62
2022/04/14 08:32:52;;;;;;;50.08;36.28;;;19.30;1.00;;;;;;4961813;28;20564;-63
2022/04/14 08:35:19;;;;;;;40.97;30.08;;;19.40;1.00;;;;;;4944840;28;20323;-62
2022/04/14 08:37:48;;;;;;;49.95;37.13;;;19.20;1.00;;;;;;4942318;28;21233;-62
2022/04/14 08:40:17;;;;;;;51.78;38.17;;;19.50;1.00;;;;;;4943563;28;20227;-63
2022/04/14 08:42:58;;;;;;;49.80;38.70;;;19.20;1.00;;;;;;4960145;28;20893;-63
2022/04/14 08:45:35;;;;;;;48.28;38.05;;;18.60;1.00;;;;;;4959130;28;20199;-61
2022/04/14 08:48:04;;;;;;;51.95;39.00;;;19.40;1.00;;;;;;4963433;28;20761;-61
2022/04/14 08:50:32;;;;;;;46.50;35.60;;;20.50;99.90;;;;;;4948869;28;20684;-62
2022/04/14 08:53:03;;;;;;;50.95;38.70;;;21.30;1.00;;;;;;4942801;28;20206;-61
2022/04/14 08:55:31;;;;;;;43.30;32.95;;;22.10;1.00;;;;;;4965277;28;20190;-61
2022/04/14 08:57:59;;;;;;;39.33;30.15;;;25.90;1.00;;;;;;4948341;28;20218;-61
2022/04/14 09:00:30;;;;;;;33.40;27.10;;;27.40;99.90;;;;;;4950538;28;20222;-61
2022/04/14 09:03:00;;;;;;;39.30;31.00;;;29.00;99.90;;;;;;4966570;28;20993;-60
2022/04/14 09:05:27;;;;;;;36.28;28.90;;;31.90;99.90;;;;;;4946990;28;20273;-62
2022/04/14 09:07:54;;;;;;;39.25;34.95;;;33.90;99.90;;;;;;4948302;28;20219;-62
2022/04/14 09:10:21;;;;;;;50.25;40.58;;;32.90;99.90;;;;;;4951008;28;20202;-60
2022/04/14 09:12:49;;;;;;;45.92;39.58;;;29.10;99.90;;;;;;4964848;28;20207;-61
2022/04/14 09:15:18;;;;;;;44.15;38.40;;;26.70;99.90;;;;;;4964828;28;20191;-60
2022/04/14 09:17:45;;;;;;;46.10;41.00;;;25.80;99.90;;;;;;4938382;28;20249;-62
2022/04/14 09:20:28;;;;;;;44.50;37.92;;;26.30;99.90;;;;;;4964195;28;20257;-63
2022/04/14 09:23:22;;;;;;;42.13;37.50;;;27.10;99.90;;;;;;4954794;28;20194;-63
2022/04/14 09:26:13;;;;;;;46.15;41.05;;;31.10;99.90;;;;;;4962614;28;20190;-63
2022/04/14 09:28:59;;;;;;;43.53;37.72;;;31.90;99.90;;;;;;4964197;28;20197;-63
2022/04/14 09:31:28;;;;;;;49.28;44.08;;;30.80;99.90;;;;;;4960572;28;20277;-63
2022/04/14 09:33:55;;;;;;;47.42;41.97;;;28.40;99.90;;;;;;4952156;28;20855;-63
2022/04/14 09:36:23;;;;;;;49.97;44.00;;;26.60;99.90;;;;;;4962385;28;20206;-63
2022/04/14 09:38:59;;;;;;;53.67;43.60;;;25.90;99.90;;;;;;4948129;28;20198;-63
2022/04/14 09:41:29;;;;;;;46.15;40.90;;;27.50;99.90;;;;;;4960397;28;20205;-63
2022/04/14 09:43:58;;;;;;;49.17;43.85;;;29.60;99.90;;;;;;4948105;28;20240;-63
2022/04/14 09:46:26;;;;;;;45.40;40.47;;;27.50;99.90;;;;;;4963134;28;20191;-63
2022/04/14 09:49:09;;;;;;;47.20;42.03;;;27.30;99.90;;;;;;4942212;28;20213;-63
2022/04/14 09:51:45;;;;;;;53.88;45.97;;;27.60;99.90;;;;;;4959590;28;20199;-63
2022/04/14 09:54:18;;;;;;;56.78;48.70;;;27.60;99.90;;;;;;4964796;28;20216;-63
2022/04/14 09:56:56;;;;;;;51.47;43.55;;;25.30;99.90;;;;;;4964979;28;20189;-63
2022/04/14 09:59:24;;;;;;;47.65;42.10;;;25.20;99.90;;;;;;4962708;28;20324;-63
2022/04/14 10:02:12;;;;;;;41.92;37.47;;;26.40;99.90;;;;;;4963548;28;20218;-63
2022/04/14 10:04:41;;;;;;;41.40;33.50;;;26.60;99.90;;;;;;4961331;28;20274;-63
2022/04/14 10:07:16;;;;;;;43.45;38.75;;;27.70;99.90;;;;;;4948894;28;20198;-62
2022/04/14 10:09:45;;;;;;;46.35;40.83;;;28.80;99.90;;;;;;4951927;28;20206;-63
2022/04/14 10:12:18;;;;;;;48.08;42.25;;;31.00;99.90;;;;;;4965419;28;20198;-63
2022/04/14 10:15:07;;;;;;;45.50;39.70;;;31.90;99.90;;;;;;4962133;28;20202;-63
2022/04/14 10:17:38;;;;;;;37.78;33.47;;;34.00;99.90;;;;;;4945254;28;20199;-63
2022/04/14 10:20:07;;;;;;;36.25;32.50;;;33.60;99.90;;;;;;4959486;28;20297;-63
2022/04/14 10:22:36;;;;;;;35.47;31.70;;;31.60;99.90;;;;;;4962452;28;20254;-63
2022/04/14 10:25:03;;;;;;;31.13;27.65;;;29.00;99.90;;;;;;4949996;28;20231;-63
2022/04/14 10:27:34;;;;;;;31.90;27.48;;;29.70;99.90;;;;;;4961798;28;20253;-64
2022/04/14 10:30:00;;;;;;;37.30;33.08;;;29.30;99.90;;;;;;4949009;28;20251;-64
2022/04/14 10:32:28;;;;;;;34.83;30.98;;;29.90;99.90;;;;;;4945806;28;20277;-64
2022/04/14 10:34:57;;;;;;;30.52;27.33;;;30.00;99.90;;;;;;4952673;28;20198;-64
2022/04/14 10:37:41;;;;;;;29.20;26.02;;;31.80;99.90;;;;;;4963286;28;20243;-65
2022/04/14 10:40:10;;;;;;;31.75;26.38;;;31.80;99.90;;;;;;4951057;28;20214;-64
2022/04/14 10:42:40;;;;;;;33.40;30.00;;;30.80;99.90;;;;;;4960273;28;20199;-65
2022/04/14 10:45:15;;;;;;;33.35;29.85;;;30.50;99.90;;;;;;4943294;28;20274;-63
2022/04/14 10:47:42;;;;;;;33.92;29.92;;;30.10;99.90;;;;;;4947331;28;20198;-64
2022/04/14 10:50:31;;;;;;;24.13;20.25;;;28.30;99.90;;;;;;4941892;28;20206;-64
2022/04/14 10:53:17;;;;;;;29.27;25.75;;;29.40;99.90;;;;;;4961505;28;20194;-63
2022/04/14 10:55:46;;;;;;;34.42;26.55;;;28.90;99.90;;;;;;4960610;28;20612;-63
2022/04/14 10:58:43;;;;;;;29.25;25.33;;;27.70;99.90;;;;;;4956241;28;20272;-64
2022/04/14 11:01:14;;;;;;;27.33;24.42;;;28.90;99.90;;;;;;4942534;28;20752;-64
2022/04/14 11:03:50;;;;;;;29.48;25.33;;;27.10;99.90;;;;;;4959740;28;20219;-63
2022/04/14 11:06:40;;;;;;;30.50;26.27;;;26.20;99.90;;;;;;4946043;28;20218;-63
2022/04/14 11:09:08;;;;;;;26.60;23.38;;;25.20;99.90;;;;;;4953507;28;20281;-64
2022/04/14 11:12:00;;;;;;;19.85;17.48;;;26.20;99.90;;;;;;4961164;28;20242;-64
2022/04/14 11:14:27;;;;;;;16.17;14.50;;;28.60;99.90;;;;;;4959756;28;20270;-63
2022/04/14 11:16:54;;;;;;;19.20;15.35;;;29.00;99.90;;;;;;4951762;28;20201;-63
2022/04/14 11:19:27;;;;;;;21.25;17.38;;;27.50;99.90;;;;;;4962835;28;20198;-63
2022/04/14 11:22:08;;;;;;;20.90;18.65;;;26.40;99.90;;;;;;4957944;28;20225;-63
2022/04/14 11:24:40;;;;;;;20.80;18.60;;;25.40;99.90;;;;;;4964964;28;20424;-64
2022/04/14 11:27:18;;;;;;;19.80;17.70;;;24.70;99.90;;;;;;4956571;28;20222;-62
2022/04/14 11:29:51;;;;;;;21.05;17.88;;;26.30;99.90;;;;;;4962425;28;20248;-62
2022/04/14 11:32:36;;;;;;;21.15;17.88;;;27.90;99.90;;;;;;4956370;28;20202;-63
2022/04/14 11:35:30;;;;;;;20.02;17.85;;;29.10;99.90;;;;;;4935809;28;20194;-64
2022/04/14 11:37:58;;;;;;;21.13;17.83;;;29.60;99.90;;;;;;4961366;28;20258;-65
2022/04/14 11:40:28;;;;;;;19.15;17.35;;;28.30;99.90;;;;;;4963433;28;20214;-63
2022/04/14 11:43:00;;;;;;;16.25;14.63;;;27.40;99.90;;;;;;4964398;28;20273;-62
2022/04/14 11:45:32;;;;;;;17.63;15.85;;;28.20;99.90;;;;;;4948585;28;20207;-63
2022/04/14 11:48:05;;;;;;;19.02;15.65;;;28.90;99.90;;;;;;4956213;28;20194;-63
2022/04/14 11:50:35;;;;;;;16.58;13.80;;;27.70;99.90;;;;;;4962124;28;20666;-64
2022/04/14 11:53:03;;;;;;;15.48;13.88;;;25.80;99.90;;;;;;4958384;28;20203;-63
2022/04/14 11:55:40;;;;;;;14.55;13.00;;;24.60;99.90;;;;;;4959356;28;20230;-63
2022/04/14 11:58:17;;;;;;;12.43;11.13;;;25.20;99.90;;;;;;4947304;28;20241;-63
2022/04/14 12:00:49;;;;;;;10.52;9.10;;;26.50;99.90;;;;;;4962246;28;20218;-64
2022/04/14 12:03:30;;;;;;;11.55;10.35;;;27.20;99.90;;;;;;4942167;28;20538;-63
2022/04/14 12:06:03;;;;;;;11.85;10.73;;;28.20;99.90;;;;;;4942873;28;20289;-63
2022/04/14 12:08:30;;;;;;;10.52;9.40;;;27.50;99.90;;;;;;4960158;28;20230;-63
2022/04/14 12:11:20;;;;;;;11.57;10.38;;;26.50;99.90;;;;;;4940914;28;20206;-64
2022/04/14 12:13:47;;;;;;;13.88;11.80;;;25.60;99.90;;;;;;4959441;28;20206;-62
2022/04/14 12:16:15;;;;;;;12.35;11.07;;;24.70;99.90;;;;;;4966459;28;20250;-62
2022/04/14 12:18:51;;;;;;;14.65;11.25;;;24.80;99.90;;;;;;4968886;28;20194;-62
2022/04/14 12:21:23;;;;;;;13.40;10.23;;;25.90;99.90;;;;;;4951070;28;20717;-66
2022/04/14 12:23:55;;;;;;;10.50;8.23;;;26.40;99.90;;;;;;4965899;28;20219;-61
2022/04/14 12:26:27;;;;;;;11.85;9.63;;;26.80;99.90;;;;;;4968804;28;20646;-62
2022/04/14 12:28:55;;;;;;;11.25;9.40;;;26.70;99.90;;;;;;4948278;28;20202;-64
2022/04/14 12:31:23;;;;;;;8.40;7.38;;;26.30;99.90;;;;;;4964482;28;20206;-61
2022/04/14 12:34:00;;;;;;;8.30;7.50;;;26.10;99.90;;;;;;4956585;28;20256;-62
2022/04/14 12:36:48;;;;;;;9.27;7.95;;;26.10;99.90;;;;;;4950491;28;20206;-62
2022/04/14 12:39:20;;;;;;;13.95;9.07;;;25.70;99.90;;;;;;4957691;28;20698;-63
2022/04/14 12:41:48;;;;;;;11.98;8.68;;;25.50;99.90;;;;;;4949681;28;20665;-63
2022/04/14 12:44:20;;;;;;;9.90;8.43;;;25.50;99.90;;;;;;4949731;28;20661;-62
2022/04/14 12:46:50;;;;;;;9.57;8.20;;;25.10;99.90;;;;;;4949601;28;20284;-62
2022/04/14 12:49:37;;;;;;;8.45;7.35;;;25.00;99.90;;;;;;4948527;28;20225;-62